sensor_id;sensor_type;location;lat;lon;timestamp;P1;durP1;ratioP1;P2;durP2;ratioP2
65871;SDS011;52653;50.080;21.992;2023-03-01T00:02:57;214.80;;;110.20;;
65871;SDS011;52653;50.080;21.992;2023-03-01T00:05:50;221.50;;;114.40;;
65871;SDS011;52653;50.080;21.992;2023-03-01T00:08:35;214.20;;;112.50;;
65871;SDS011;52653;50.080;21.992;2023-03-01T00:11:29;202.50;;;109.60;;
65871;SDS011;52653;50.080;21.992;2023-03-01T00:14:15;219.80;;;113.20;;
65871;SDS011;52653;50.080;21.992;2023-03-01T00:17:09;219.90;;;115.70;;
65871;SDS011;52653;50.080;21.992;2023-03-01T00:20:02;219.70;;;113.10;;
65871;SDS011;52653;50.080;21.992;2023-03-01T00:22:52;214.10;;;112.50;;
65871;SDS011;52653;50.080;21.992;2023-03-01T00:25:45;211.80;;;115.80;;
65871;SDS011;52653;50.080;21.992;2023-03-01T00:28:37;218.30;;;120.60;;
65871;SDS011;52653;50.080;21.992;2023-03-01T00:31:31;234.60;;;127.00;;
65871;SDS011;52653;50.080;21.992;2023-03-01T00:34:24;253.10;;;131.10;;
65871;SDS011;52653;50.080;21.992;2023-03-01T00:37:17;248.20;;;129.00;;
65871;SDS011;52653;50.080;21.992;2023-03-01T00:40:11;253.40;;;131.10;;
65871;SDS011;52653;50.080;21.992;2023-03-01T00:43:04;259.00;;;132.50;;
65871;SDS011;52653;50.080;21.992;2023-03-01T00:45:56;254.10;;;129.90;;
65871;SDS011;52653;50.080;21.992;2023-03-01T00:48:53;251.20;;;131.10;;
65871;SDS011;52653;50.080;21.992;2023-03-01T00:51:46;256.10;;;129.00;;
65871;SDS011;52653;50.080;21.992;2023-03-01T00:54:39;226.50;;;124.50;;
65871;SDS011;52653;50.080;21.992;2023-03-01T00:57:32;227.00;;;121.70;;
65871;SDS011;52653;50.080;21.992;2023-03-01T01:00:25;225.30;;;120.80;;
65871;SDS011;52653;50.080;21.992;2023-03-01T01:03:18;232.00;;;120.20;;
65871;SDS011;52653;50.080;21.992;2023-03-01T01:06:14;226.60;;;121.80;;
65871;SDS011;52653;50.080;21.992;2023-03-01T01:09:09;237.00;;;126.40;;
65871;SDS011;52653;50.080;21.992;2023-03-01T01:11:59;232.60;;;121.00;;
65871;SDS011;52653;50.080;21.992;2023-03-01T01:14:52;263.70;;;133.70;;
65871;SDS011;52653;50.080;21.992;2023-03-01T01:17:44;263.30;;;139.80;;
65871;SDS011;52653;50.080;21.992;2023-03-01T01:20:31;263.80;;;137.10;;
65871;SDS011;52653;50.080;21.992;2023-03-01T01:23:25;273.60;;;142.70;;
65871;SDS011;52653;50.080;21.992;2023-03-01T01:26:19;268.30;;;141.90;;
65871;SDS011;52653;50.080;21.992;2023-03-01T01:29:14;268.40;;;144.30;;
65871;SDS011;52653;50.080;21.992;2023-03-01T01:32:08;270.10;;;142.60;;
65871;SDS011;52653;50.080;21.992;2023-03-01T01:35:00;255.50;;;134.50;;
65871;SDS011;52653;50.080;21.992;2023-03-01T01:37:55;236.30;;;128.40;;
65871;SDS011;52653;50.080;21.992;2023-03-01T01:40:47;246.60;;;126.60;;
65871;SDS011;52653;50.080;21.992;2023-03-01T01:43:42;247.30;;;126.00;;
65871;SDS011;52653;50.080;21.992;2023-03-01T01:46:37;230.60;;;119.00;;
65871;SDS011;52653;50.080;21.992;2023-03-01T01:49:33;221.00;;;113.60;;
65871;SDS011;52653;50.080;21.992;2023-03-01T01:52:24;215.50;;;119.60;;
65871;SDS011;52653;50.080;21.992;2023-03-01T01:55:21;224.50;;;117.50;;
65871;SDS011;52653;50.080;21.992;2023-03-01T01:58:04;215.40;;;113.10;;
65871;SDS011;52653;50.080;21.992;2023-03-01T02:00:59;220.60;;;117.80;;
65871;SDS011;52653;50.080;21.992;2023-03-01T02:03:46;223.30;;;113.60;;
65871;SDS011;52653;50.080;21.992;2023-03-01T02:06:41;216.60;;;113.60;;
65871;SDS011;52653;50.080;21.992;2023-03-01T02:09:41;220.30;;;114.30;;
65871;SDS011;52653;50.080;21.992;2023-03-01T02:12:36;219.20;;;112.80;;
65871;SDS011;52653;50.080;21.992;2023-03-01T02:15:24;218.90;;;114.40;;
65871;SDS011;52653;50.080;21.992;2023-03-01T02:18:18;214.00;;;111.90;;
65871;SDS011;52653;50.080;21.992;2023-03-01T02:21:20;221.00;;;115.40;;
65871;SDS011;52653;50.080;21.992;2023-03-01T02:24:27;214.30;;;111.30;;
65871;SDS011;52653;50.080;21.992;2023-03-01T02:27:28;217.60;;;111.90;;
65871;SDS011;52653;50.080;21.992;2023-03-01T02:30:28;208.30;;;111.30;;
65871;SDS011;52653;50.080;21.992;2023-03-01T02:33:23;200.20;;;109.00;;
65871;SDS011;52653;50.080;21.992;2023-03-01T02:36:08;200.00;;;108.30;;
65871;SDS011;52653;50.080;21.992;2023-03-01T02:39:06;226.70;;;119.10;;
65871;SDS011;52653;50.080;21.992;2023-03-01T02:42:06;230.20;;;118.40;;
65871;SDS011;52653;50.080;21.992;2023-03-01T02:45:01;234.70;;;120.00;;
65871;SDS011;52653;50.080;21.992;2023-03-01T02:47:55;241.80;;;126.40;;
65871;SDS011;52653;50.080;21.992;2023-03-01T02:50:55;238.50;;;125.40;;
65871;SDS011;52653;50.080;21.992;2023-03-01T02:53:59;227.10;;;121.30;;
65871;SDS011;52653;50.080;21.992;2023-03-01T02:56:53;217.90;;;111.60;;
65871;SDS011;52653;50.080;21.992;2023-03-01T02:59:45;208.80;;;110.10;;
65871;SDS011;52653;50.080;21.992;2023-03-01T03:02:39;209.10;;;108.50;;
65871;SDS011;52653;50.080;21.992;2023-03-01T03:05:35;203.10;;;106.30;;
65871;SDS011;52653;50.080;21.992;2023-03-01T03:08:27;200.00;;;104.90;;
65871;SDS011;52653;50.080;21.992;2023-03-01T03:11:20;194.70;;;104.00;;
65871;SDS011;52653;50.080;21.992;2023-03-01T03:14:14;194.40;;;105.30;;
65871;SDS011;52653;50.080;21.992;2023-03-01T03:17:07;204.60;;;109.60;;
65871;SDS011;52653;50.080;21.992;2023-03-01T03:19:59;200.10;;;108.10;;
65871;SDS011;52653;50.080;21.992;2023-03-01T03:22:36;200.30;;;108.80;;
65871;SDS011;52653;50.080;21.992;2023-03-01T03:25:31;207.70;;;111.90;;
65871;SDS011;52653;50.080;21.992;2023-03-01T03:28:27;219.70;;;116.80;;
65871;SDS011;52653;50.080;21.992;2023-03-01T03:31:21;218.00;;;115.60;;
65871;SDS011;52653;50.080;21.992;2023-03-01T03:34:14;219.40;;;116.50;;
65871;SDS011;52653;50.080;21.992;2023-03-01T03:37:02;212.60;;;113.20;;
65871;SDS011;52653;50.080;21.992;2023-03-01T03:40:15;202.70;;;107.70;;
65871;SDS011;52653;50.080;21.992;2023-03-01T03:43:01;193.30;;;104.70;;
65871;SDS011;52653;50.080;21.992;2023-03-01T03:45:49;197.80;;;105.30;;
65871;SDS011;52653;50.080;21.992;2023-03-01T03:48:44;187.50;;;105.00;;
65871;SDS011;52653;50.080;21.992;2023-03-01T03:51:30;206.60;;;110.10;;
65871;SDS011;52653;50.080;21.992;2023-03-01T03:54:23;190.60;;;104.70;;
65871;SDS011;52653;50.080;21.992;2023-03-01T03:57:16;185.50;;;102.70;;
65871;SDS011;52653;50.080;21.992;2023-03-01T04:00:11;189.10;;;101.80;;
65871;SDS011;52653;50.080;21.992;2023-03-01T04:03:05;190.90;;;101.50;;
65871;SDS011;52653;50.080;21.992;2023-03-01T04:05:56;179.80;;;98.70;;
65871;SDS011;52653;50.080;21.992;2023-03-01T04:08:50;185.60;;;101.90;;
65871;SDS011;52653;50.080;21.992;2023-03-01T04:11:37;195.00;;;104.00;;
65871;SDS011;52653;50.080;21.992;2023-03-01T04:14:31;184.10;;;99.20;;
65871;SDS011;52653;50.080;21.992;2023-03-01T04:17:24;185.50;;;102.70;;
65871;SDS011;52653;50.080;21.992;2023-03-01T04:20:17;189.40;;;100.20;;
65871;SDS011;52653;50.080;21.992;2023-03-01T04:23:16;185.00;;;98.00;;
65871;SDS011;52653;50.080;21.992;2023-03-01T04:26:01;185.00;;;99.60;;
65871;SDS011;52653;50.080;21.992;2023-03-01T04:28:54;188.00;;;100.20;;
65871;SDS011;52653;50.080;21.992;2023-03-01T04:31:47;186.60;;;103.80;;
65871;SDS011;52653;50.080;21.992;2023-03-01T04:34:33;190.50;;;100.20;;
65871;SDS011;52653;50.080;21.992;2023-03-01T04:37:26;189.40;;;101.30;;
65871;SDS011;52653;50.080;21.992;2023-03-01T04:40:19;183.20;;;98.10;;
65871;SDS011;52653;50.080;21.992;2023-03-01T04:43:12;180.00;;;96.80;;
65871;SDS011;52653;50.080;21.992;2023-03-01T04:46:05;177.90;;;96.00;;
65871;SDS011;52653;50.080;21.992;2023-03-01T04:49:02;189.20;;;98.80;;
65871;SDS011;52653;50.080;21.992;2023-03-01T04:51:47;194.90;;;100.00;;
65871;SDS011;52653;50.080;21.992;2023-03-01T04:54:25;203.90;;;105.20;;
65871;SDS011;52653;50.080;21.992;2023-03-01T04:57:13;185.20;;;100.60;;
65871;SDS011;52653;50.080;21.992;2023-03-01T04:59:50;194.90;;;102.50;;
65871;SDS011;52653;50.080;21.992;2023-03-01T05:02:44;186.90;;;101.50;;
65871;SDS011;52653;50.080;21.992;2023-03-01T05:05:43;179.40;;;98.40;;
65871;SDS011;52653;50.080;21.992;2023-03-01T05:08:30;188.00;;;97.80;;
65871;SDS011;52653;50.080;21.992;2023-03-01T05:11:23;180.00;;;100.10;;
65871;SDS011;52653;50.080;21.992;2023-03-01T05:14:17;186.00;;;101.80;;
65871;SDS011;52653;50.080;21.992;2023-03-01T05:17:03;183.50;;;100.00;;
65871;SDS011;52653;50.080;21.992;2023-03-01T05:19:56;183.50;;;97.70;;
65871;SDS011;52653;50.080;21.992;2023-03-01T05:22:51;181.70;;;101.20;;
65871;SDS011;52653;50.080;21.992;2023-03-01T05:25:45;202.00;;;111.80;;
65871;SDS011;52653;50.080;21.992;2023-03-01T05:28:40;201.20;;;105.30;;
65871;SDS011;52653;50.080;21.992;2023-03-01T05:31:32;183.00;;;100.60;;
65871;SDS011;52653;50.080;21.992;2023-03-01T05:34:28;189.50;;;103.50;;
65871;SDS011;52653;50.080;21.992;2023-03-01T05:37:23;203.90;;;107.30;;
65871;SDS011;52653;50.080;21.992;2023-03-01T05:40:19;194.60;;;107.10;;
65871;SDS011;52653;50.080;21.992;2023-03-01T05:43:14;186.10;;;105.50;;
65871;SDS011;52653;50.080;21.992;2023-03-01T05:46:02;182.30;;;100.10;;
65871;SDS011;52653;50.080;21.992;2023-03-01T05:48:55;168.90;;;97.00;;
65871;SDS011;52653;50.080;21.992;2023-03-01T05:51:51;165.10;;;95.10;;
65871;SDS011;52653;50.080;21.992;2023-03-01T05:54:36;165.70;;;93.30;;
65871;SDS011;52653;50.080;21.992;2023-03-01T05:57:22;154.30;;;85.00;;
65871;SDS011;52653;50.080;21.992;2023-03-01T06:03:12;153.60;;;84.20;;
65871;SDS011;52653;50.080;21.992;2023-03-01T06:05:57;160.10;;;86.60;;
65871;SDS011;52653;50.080;21.992;2023-03-01T06:08:52;156.90;;;85.50;;
65871;SDS011;52653;50.080;21.992;2023-03-01T06:11:46;159.90;;;85.80;;
65871;SDS011;52653;50.080;21.992;2023-03-01T06:14:33;160.50;;;94.00;;
65871;SDS011;52653;50.080;21.992;2023-03-01T06:17:28;151.90;;;90.30;;
65871;SDS011;52653;50.080;21.992;2023-03-01T06:20:14;136.30;;;80.10;;
65871;SDS011;52653;50.080;21.992;2023-03-01T06:23:08;128.10;;;72.10;;
65871;SDS011;52653;50.080;21.992;2023-03-01T06:26:04;119.90;;;68.50;;
65871;SDS011;52653;50.080;21.992;2023-03-01T06:28:52;116.50;;;66.20;;
65871;SDS011;52653;50.080;21.992;2023-03-01T06:31:45;124.70;;;72.90;;
65871;SDS011;52653;50.080;21.992;2023-03-01T06:34:27;123.90;;;68.80;;
65871;SDS011;52653;50.080;21.992;2023-03-01T06:37:19;112.20;;;66.70;;
65871;SDS011;52653;50.080;21.992;2023-03-01T06:40:13;114.70;;;64.10;;
65871;SDS011;52653;50.080;21.992;2023-03-01T06:43:06;108.60;;;65.10;;
65871;SDS011;52653;50.080;21.992;2023-03-01T06:45:59;96.10;;;58.20;;
65871;SDS011;52653;50.080;21.992;2023-03-01T06:48:54;91.50;;;55.00;;
65871;SDS011;52653;50.080;21.992;2023-03-01T06:51:48;102.30;;;61.70;;
65871;SDS011;52653;50.080;21.992;2023-03-01T06:54:41;105.40;;;63.70;;
65871;SDS011;52653;50.080;21.992;2023-03-01T06:57:34;112.90;;;66.20;;
65871;SDS011;52653;50.080;21.992;2023-03-01T07:00:28;112.40;;;66.60;;
65871;SDS011;52653;50.080;21.992;2023-03-01T07:03:22;108.90;;;64.80;;
65871;SDS011;52653;50.080;21.992;2023-03-01T07:06:16;109.90;;;63.70;;
65871;SDS011;52653;50.080;21.992;2023-03-01T07:09:02;114.00;;;67.90;;
65871;SDS011;52653;50.080;21.992;2023-03-01T07:11:54;111.00;;;62.20;;
65871;SDS011;52653;50.080;21.992;2023-03-01T07:14:49;116.30;;;65.20;;
65871;SDS011;52653;50.080;21.992;2023-03-01T07:17:43;113.10;;;64.20;;
65871;SDS011;52653;50.080;21.992;2023-03-01T07:20:39;111.40;;;63.60;;
65871;SDS011;52653;50.080;21.992;2023-03-01T07:23:16;111.10;;;63.10;;
65871;SDS011;52653;50.080;21.992;2023-03-01T07:26:09;103.60;;;61.20;;
65871;SDS011;52653;50.080;21.992;2023-03-01T07:29:02;104.10;;;65.20;;
65871;SDS011;52653;50.080;21.992;2023-03-01T07:31:46;105.50;;;60.90;;
65871;SDS011;52653;50.080;21.992;2023-03-01T07:34:22;102.10;;;64.50;;
65871;SDS011;52653;50.080;21.992;2023-03-01T07:37:16;106.80;;;64.30;;
65871;SDS011;52653;50.080;21.992;2023-03-01T07:40:09;98.40;;;59.90;;
65871;SDS011;52653;50.080;21.992;2023-03-01T07:43:03;100.00;;;62.20;;
65871;SDS011;52653;50.080;21.992;2023-03-01T07:45:59;118.20;;;68.50;;
65871;SDS011;52653;50.080;21.992;2023-03-01T07:48:43;108.00;;;60.60;;
65871;SDS011;52653;50.080;21.992;2023-03-01T07:51:36;94.70;;;57.20;;
65871;SDS011;52653;50.080;21.992;2023-03-01T07:54:29;117.60;;;66.80;;
65871;SDS011;52653;50.080;21.992;2023-03-01T07:57:23;87.20;;;54.20;;
65871;SDS011;52653;50.080;21.992;2023-03-01T08:00:16;80.60;;;51.80;;
65871;SDS011;52653;50.080;21.992;2023-03-01T08:02:50;81.60;;;51.20;;
65871;SDS011;52653;50.080;21.992;2023-03-01T08:05:32;79.90;;;48.80;;
65871;SDS011;52653;50.080;21.992;2023-03-01T08:08:25;68.90;;;43.50;;
65871;SDS011;52653;50.080;21.992;2023-03-01T08:11:18;71.70;;;45.30;;
65871;SDS011;52653;50.080;21.992;2023-03-01T08:14:11;69.60;;;44.50;;
65871;SDS011;52653;50.080;21.992;2023-03-01T08:17:02;72.10;;;45.90;;
65871;SDS011;52653;50.080;21.992;2023-03-01T08:19:55;68.70;;;43.10;;
65871;SDS011;52653;50.080;21.992;2023-03-01T08:22:48;67.10;;;41.90;;
65871;SDS011;52653;50.080;21.992;2023-03-01T08:25:42;64.30;;;42.20;;
65871;SDS011;52653;50.080;21.992;2023-03-01T08:28:35;58.50;;;39.30;;
65871;SDS011;52653;50.080;21.992;2023-03-01T08:31:31;59.10;;;39.10;;
65871;SDS011;52653;50.080;21.992;2023-03-01T08:34:20;50.30;;;34.50;;
65871;SDS011;52653;50.080;21.992;2023-03-01T08:37:03;43.00;;;28.90;;
65871;SDS011;52653;50.080;21.992;2023-03-01T08:39:39;49.30;;;31.00;;
65871;SDS011;52653;50.080;21.992;2023-03-01T08:45:27;44.40;;;27.90;;
65871;SDS011;52653;50.080;21.992;2023-03-01T08:48:20;45.10;;;29.40;;
65871;SDS011;52653;50.080;21.992;2023-03-01T08:51:08;47.60;;;31.00;;
65871;SDS011;52653;50.080;21.992;2023-03-01T08:53:57;42.40;;;26.90;;
65871;SDS011;52653;50.080;21.992;2023-03-01T08:56:39;46.10;;;29.20;;
65871;SDS011;52653;50.080;21.992;2023-03-01T08:59:32;47.80;;;31.20;;
65871;SDS011;52653;50.080;21.992;2023-03-01T09:02:26;44.00;;;29.30;;
65871;SDS011;52653;50.080;21.992;2023-03-01T09:05:19;40.30;;;28.50;;
65871;SDS011;52653;50.080;21.992;2023-03-01T09:07:55;41.90;;;28.10;;
65871;SDS011;52653;50.080;21.992;2023-03-01T09:10:48;41.00;;;25.90;;
65871;SDS011;52653;50.080;21.992;2023-03-01T09:13:41;45.10;;;29.70;;
65871;SDS011;52653;50.080;21.992;2023-03-01T09:16:34;44.10;;;29.50;;
65871;SDS011;52653;50.080;21.992;2023-03-01T09:19:16;45.30;;;30.90;;
65871;SDS011;52653;50.080;21.992;2023-03-01T09:22:09;45.60;;;29.10;;
65871;SDS011;52653;50.080;21.992;2023-03-01T09:24:54;44.20;;;30.60;;
65871;SDS011;52653;50.080;21.992;2023-03-01T09:27:41;44.40;;;29.90;;
65871;SDS011;52653;50.080;21.992;2023-03-01T09:30:34;39.60;;;27.90;;
65871;SDS011;52653;50.080;21.992;2023-03-01T09:33:30;40.00;;;27.70;;
65871;SDS011;52653;50.080;21.992;2023-03-01T09:36:24;41.20;;;27.50;;
65871;SDS011;52653;50.080;21.992;2023-03-01T09:39:12;42.80;;;27.20;;
65871;SDS011;52653;50.080;21.992;2023-03-01T09:42:06;39.20;;;26.60;;
65871;SDS011;52653;50.080;21.992;2023-03-01T09:44:57;38.20;;;27.50;;
65871;SDS011;52653;50.080;21.992;2023-03-01T09:47:54;39.30;;;25.10;;
65871;SDS011;52653;50.080;21.992;2023-03-01T09:50:39;35.00;;;23.10;;
65871;SDS011;52653;50.080;21.992;2023-03-01T09:53:36;40.00;;;27.50;;
65871;SDS011;52653;50.080;21.992;2023-03-01T09:56:30;50.90;;;33.00;;
65871;SDS011;52653;50.080;21.992;2023-03-01T09:59:29;37.10;;;26.10;;
65871;SDS011;52653;50.080;21.992;2023-03-01T10:02:30;32.80;;;22.50;;
65871;SDS011;52653;50.080;21.992;2023-03-01T10:05:36;31.20;;;20.70;;
65871;SDS011;52653;50.080;21.992;2023-03-01T10:08:38;28.20;;;19.90;;
65871;SDS011;52653;50.080;21.992;2023-03-01T10:11:41;31.90;;;19.90;;
65871;SDS011;52653;50.080;21.992;2023-03-01T10:14:38;27.60;;;19.60;;
65871;SDS011;52653;50.080;21.992;2023-03-01T10:17:34;31.20;;;19.90;;
65871;SDS011;52653;50.080;21.992;2023-03-01T10:20:17;27.00;;;18.30;;
65871;SDS011;52653;50.080;21.992;2023-03-01T10:23:12;29.60;;;18.80;;
65871;SDS011;52653;50.080;21.992;2023-03-01T10:26:11;25.60;;;17.90;;
65871;SDS011;52653;50.080;21.992;2023-03-01T10:29:14;32.30;;;20.60;;
65871;SDS011;52653;50.080;21.992;2023-03-01T10:32:08;28.50;;;18.80;;
65871;SDS011;52653;50.080;21.992;2023-03-01T10:35:14;27.80;;;18.90;;
65871;SDS011;52653;50.080;21.992;2023-03-01T10:38:12;25.60;;;17.70;;
65871;SDS011;52653;50.080;21.992;2023-03-01T10:41:06;28.30;;;18.00;;
65871;SDS011;52653;50.080;21.992;2023-03-01T10:43:53;28.20;;;17.60;;
65871;SDS011;52653;50.080;21.992;2023-03-01T10:46:47;28.50;;;18.00;;
65871;SDS011;52653;50.080;21.992;2023-03-01T10:50:03;38.30;;;28.00;;
65871;SDS011;52653;50.080;21.992;2023-03-01T10:53:16;30.20;;;19.50;;
65871;SDS011;52653;50.080;21.992;2023-03-01T10:56:15;31.10;;;19.50;;
65871;SDS011;52653;50.080;21.992;2023-03-01T10:59:10;30.90;;;20.00;;
65871;SDS011;52653;50.080;21.992;2023-03-01T11:02:18;31.30;;;20.50;;
65871;SDS011;52653;50.080;21.992;2023-03-01T11:05:21;30.50;;;19.40;;
65871;SDS011;52653;50.080;21.992;2023-03-01T11:08:26;29.50;;;18.70;;
65871;SDS011;52653;50.080;21.992;2023-03-01T11:14:26;31.10;;;20.10;;
65871;SDS011;52653;50.080;21.992;2023-03-01T11:17:24;31.60;;;21.00;;
65871;SDS011;52653;50.080;21.992;2023-03-01T11:20:17;28.30;;;19.10;;
65871;SDS011;52653;50.080;21.992;2023-03-01T11:23:17;29.70;;;19.10;;
65871;SDS011;52653;50.080;21.992;2023-03-01T11:26:12;29.30;;;18.40;;
65871;SDS011;52653;50.080;21.992;2023-03-01T11:29:07;33.10;;;21.30;;
65871;SDS011;52653;50.080;21.992;2023-03-01T11:32:09;30.70;;;20.60;;
65871;SDS011;52653;50.080;21.992;2023-03-01T11:35:05;33.40;;;21.60;;
65871;SDS011;52653;50.080;21.992;2023-03-01T11:38:09;33.40;;;21.60;;
65871;SDS011;52653;50.080;21.992;2023-03-01T11:41:01;37.00;;;23.00;;
65871;SDS011;52653;50.080;21.992;2023-03-01T11:43:58;32.70;;;21.80;;
65871;SDS011;52653;50.080;21.992;2023-03-01T11:47:05;34.10;;;21.60;;
65871;SDS011;52653;50.080;21.992;2023-03-01T11:50:18;38.30;;;24.00;;
65871;SDS011;52653;50.080;21.992;2023-03-01T11:53:30;31.70;;;21.70;;
65871;SDS011;52653;50.080;21.992;2023-03-01T11:56:28;32.10;;;21.90;;
65871;SDS011;52653;50.080;21.992;2023-03-01T11:59:32;30.10;;;21.50;;
65871;SDS011;52653;50.080;21.992;2023-03-01T12:02:48;27.20;;;18.70;;
65871;SDS011;52653;50.080;21.992;2023-03-01T12:09:38;33.60;;;20.80;;
65871;SDS011;52653;50.080;21.992;2023-03-01T12:12:44;36.70;;;23.90;;
65871;SDS011;52653;50.080;21.992;2023-03-01T12:15:55;37.30;;;26.10;;
65871;SDS011;52653;50.080;21.992;2023-03-01T12:19:20;73.20;;;40.90;;
65871;SDS011;52653;50.080;21.992;2023-03-01T12:22:32;30.40;;;17.50;;
65871;SDS011;52653;50.080;21.992;2023-03-01T12:25:36;24.50;;;15.50;;
65871;SDS011;52653;50.080;21.992;2023-03-01T12:28:42;21.30;;;14.40;;
65871;SDS011;52653;50.080;21.992;2023-03-01T12:35:27;21.70;;;13.80;;
65871;SDS011;52653;50.080;21.992;2023-03-01T12:38:39;20.50;;;14.20;;
65871;SDS011;52653;50.080;21.992;2023-03-01T12:41:42;19.40;;;12.60;;
65871;SDS011;52653;50.080;21.992;2023-03-01T12:44:42;21.60;;;14.00;;
65871;SDS011;52653;50.080;21.992;2023-03-01T12:47:35;23.50;;;13.60;;
65871;SDS011;52653;50.080;21.992;2023-03-01T12:50:42;21.00;;;14.00;;
65871;SDS011;52653;50.080;21.992;2023-03-01T12:53:21;19.40;;;12.20;;
65871;SDS011;52653;50.080;21.992;2023-03-01T12:56:18;16.90;;;11.20;;
65871;SDS011;52653;50.080;21.992;2023-03-01T12:59:13;19.90;;;12.70;;
65871;SDS011;52653;50.080;21.992;2023-03-01T13:02:04;17.70;;;11.60;;
65871;SDS011;52653;50.080;21.992;2023-03-01T13:05:26;17.30;;;10.90;;
65871;SDS011;52653;50.080;21.992;2023-03-01T13:08:31;18.90;;;12.60;;
65871;SDS011;52653;50.080;21.992;2023-03-01T13:11:32;18.40;;;12.00;;
65871;SDS011;52653;50.080;21.992;2023-03-01T13:14:39;19.60;;;12.10;;
65871;SDS011;52653;50.080;21.992;2023-03-01T13:17:41;20.70;;;12.70;;
65871;SDS011;52653;50.080;21.992;2023-03-01T13:20:46;20.20;;;11.70;;
65871;SDS011;52653;50.080;21.992;2023-03-01T13:23:47;23.10;;;12.80;;
65871;SDS011;52653;50.080;21.992;2023-03-01T13:29:53;19.50;;;12.50;;
65871;SDS011;52653;50.080;21.992;2023-03-01T13:32:40;18.90;;;12.70;;
65871;SDS011;52653;50.080;21.992;2023-03-01T13:35:43;20.80;;;13.20;;
65871;SDS011;52653;50.080;21.992;2023-03-01T13:38:45;22.40;;;13.20;;
65871;SDS011;52653;50.080;21.992;2023-03-01T13:44:47;19.00;;;13.60;;
65871;SDS011;52653;50.080;21.992;2023-03-01T13:47:40;21.10;;;14.10;;
65871;SDS011;52653;50.080;21.992;2023-03-01T13:50:29;19.80;;;13.30;;
65871;SDS011;52653;50.080;21.992;2023-03-01T13:53:31;21.90;;;13.70;;
65871;SDS011;52653;50.080;21.992;2023-03-01T13:56:21;19.70;;;12.40;;
65871;SDS011;52653;50.080;21.992;2023-03-01T13:59:20;19.20;;;13.20;;
65871;SDS011;52653;50.080;21.992;2023-03-01T14:02:15;19.40;;;12.40;;
65871;SDS011;52653;50.080;21.992;2023-03-01T14:05:05;20.30;;;12.90;;
65871;SDS011;52653;50.080;21.992;2023-03-01T14:08:01;21.30;;;12.30;;
65871;SDS011;52653;50.080;21.992;2023-03-01T14:11:08;18.70;;;11.90;;
65871;SDS011;52653;50.080;21.992;2023-03-01T14:14:23;16.80;;;10.70;;
65871;SDS011;52653;50.080;21.992;2023-03-01T14:17:32;16.50;;;10.40;;
65871;SDS011;52653;50.080;21.992;2023-03-01T14:20:46;16.80;;;10.30;;
65871;SDS011;52653;50.080;21.992;2023-03-01T14:23:41;18.10;;;10.70;;
65871;SDS011;52653;50.080;21.992;2023-03-01T14:26:34;19.40;;;11.60;;
65871;SDS011;52653;50.080;21.992;2023-03-01T14:29:34;19.50;;;11.80;;
65871;SDS011;52653;50.080;21.992;2023-03-01T14:32:28;17.90;;;11.20;;
65871;SDS011;52653;50.080;21.992;2023-03-01T14:35:23;16.30;;;10.70;;
65871;SDS011;52653;50.080;21.992;2023-03-01T14:38:21;20.60;;;11.40;;
65871;SDS011;52653;50.080;21.992;2023-03-01T14:41:20;19.10;;;10.50;;
65871;SDS011;52653;50.080;21.992;2023-03-01T14:44:14;18.20;;;11.00;;
65871;SDS011;52653;50.080;21.992;2023-03-01T14:47:14;17.10;;;10.50;;
65871;SDS011;52653;50.080;21.992;2023-03-01T14:50:16;18.30;;;10.60;;
65871;SDS011;52653;50.080;21.992;2023-03-01T14:53:16;15.50;;;9.80;;
65871;SDS011;52653;50.080;21.992;2023-03-01T14:56:13;18.10;;;11.10;;
65871;SDS011;52653;50.080;21.992;2023-03-01T14:59:09;22.60;;;14.80;;
65871;SDS011;52653;50.080;21.992;2023-03-01T15:02:01;18.20;;;11.50;;
65871;SDS011;52653;50.080;21.992;2023-03-01T15:04:55;18.40;;;11.70;;
65871;SDS011;52653;50.080;21.992;2023-03-01T15:07:51;18.30;;;10.40;;
65871;SDS011;52653;50.080;21.992;2023-03-01T15:10:57;18.40;;;11.80;;
65871;SDS011;52653;50.080;21.992;2023-03-01T15:13:40;19.90;;;12.00;;
65871;SDS011;52653;50.080;21.992;2023-03-01T15:16:29;19.80;;;11.00;;
65871;SDS011;52653;50.080;21.992;2023-03-01T15:19:24;21.10;;;12.10;;
65871;SDS011;52653;50.080;21.992;2023-03-01T15:22:19;19.00;;;11.90;;
65871;SDS011;52653;50.080;21.992;2023-03-01T15:25:14;18.60;;;11.10;;
65871;SDS011;52653;50.080;21.992;2023-03-01T15:28:18;20.40;;;11.70;;
65871;SDS011;52653;50.080;21.992;2023-03-01T15:31:16;20.40;;;13.90;;
65871;SDS011;52653;50.080;21.992;2023-03-01T15:34:21;25.60;;;15.70;;
65871;SDS011;52653;50.080;21.992;2023-03-01T15:40:30;22.00;;;12.60;;
65871;SDS011;52653;50.080;21.992;2023-03-01T15:43:40;22.40;;;13.50;;
65871;SDS011;52653;50.080;21.992;2023-03-01T15:46:35;26.10;;;17.00;;
65871;SDS011;52653;50.080;21.992;2023-03-01T15:49:33;29.40;;;18.00;;
65871;SDS011;52653;50.080;21.992;2023-03-01T15:52:43;28.90;;;18.20;;
65871;SDS011;52653;50.080;21.992;2023-03-01T15:55:36;29.20;;;19.70;;
65871;SDS011;52653;50.080;21.992;2023-03-01T15:58:29;32.30;;;19.60;;
65871;SDS011;52653;50.080;21.992;2023-03-01T16:01:14;27.70;;;16.70;;
65871;SDS011;52653;50.080;21.992;2023-03-01T16:04:08;29.20;;;17.40;;
65871;SDS011;52653;50.080;21.992;2023-03-01T16:07:05;25.90;;;16.60;;
65871;SDS011;52653;50.080;21.992;2023-03-01T16:10:01;40.40;;;23.10;;
65871;SDS011;52653;50.080;21.992;2023-03-01T16:12:56;44.10;;;23.70;;
65871;SDS011;52653;50.080;21.992;2023-03-01T16:15:50;50.40;;;26.90;;
65871;SDS011;52653;50.080;21.992;2023-03-01T16:18:45;43.30;;;24.30;;
65871;SDS011;52653;50.080;21.992;2023-03-01T16:21:38;40.20;;;25.00;;
65871;SDS011;52653;50.080;21.992;2023-03-01T16:24:25;44.00;;;27.90;;
65871;SDS011;52653;50.080;21.992;2023-03-01T16:27:19;47.10;;;28.70;;
65871;SDS011;52653;50.080;21.992;2023-03-01T16:30:13;59.80;;;33.00;;
65871;SDS011;52653;50.080;21.992;2023-03-01T16:33:09;62.70;;;32.80;;
65871;SDS011;52653;50.080;21.992;2023-03-01T16:36:23;47.80;;;30.00;;
65871;SDS011;52653;50.080;21.992;2023-03-01T16:38:58;49.40;;;28.80;;
65871;SDS011;52653;50.080;21.992;2023-03-01T16:41:43;53.10;;;33.10;;
65871;SDS011;52653;50.080;21.992;2023-03-01T16:44:36;63.30;;;37.10;;
65871;SDS011;52653;50.080;21.992;2023-03-01T16:47:20;65.30;;;36.80;;
65871;SDS011;52653;50.080;21.992;2023-03-01T16:50:13;69.00;;;37.70;;
65871;SDS011;52653;50.080;21.992;2023-03-01T16:52:56;69.80;;;36.00;;
65871;SDS011;52653;50.080;21.992;2023-03-01T16:55:53;63.90;;;34.30;;
65871;SDS011;52653;50.080;21.992;2023-03-01T16:58:47;68.00;;;35.60;;
65871;SDS011;52653;50.080;21.992;2023-03-01T17:01:40;65.20;;;34.00;;